Time;durP1;ratioP1;P1;durP2;ratioP2;P2;SDS_P1;SDS_P2;PMS_P1;PMS_P2;Temp;Humidity;BMP_temperature;BMP_pressure;BME280_temperature;BME280_humidity;BME280_pressure;Samples;Min_cycle;Max_cycle;Signal;HPM_P1;HPM_P2
2023/03/18 00:01:15;;;;;;;31.83;24.45;;;;;;;10.73;100.00;100273.28;10457604;28;20060;-81
2023/03/18 00:06:18;;;;;;;34.60;24.73;;;;;;;10.87;100.00;100302.84;10457984;28;20037;-81
2023/03/18 00:11:20;;;;;;;34.13;24.05;;;;;;;10.62;100.00;100257.75;10457304;28;20055;-81
2023/03/18 00:16:21;;;;;;;35.10;25.23;;;;;;;10.88;100.00;100289.38;10457509;28;20492;-80
2023/03/18 00:21:22;;;;;;;35.38;26.65;;;;;;;10.40;100.00;100218.63;10456625;28;20047;-80
2023/03/18 00:26:27;;;;;;;40.15;25.73;;;;;;;10.89;100.00;100284.91;10456408;28;20037;-80
2023/03/18 00:31:28;;;;;;;35.38;26.05;;;;;;;10.69;100.00;100258.72;10456754;28;20489;-80
2023/03/18 00:36:29;;;;;;;39.60;25.27;;;;;;;10.83;100.00;100293.53;10456955;28;20037;-81
2023/03/18 00:41:35;;;;;;;35.08;24.70;;;;;;;10.85;100.00;100303.00;10456572;28;20465;-81
2023/03/18 00:46:37;;;;;;;31.63;23.67;;;;;;;10.84;100.00;100301.34;10455694;28;20060;-80
2023/03/18 00:51:40;;;;;;;38.55;27.50;;;;;;;10.77;100.00;100287.09;10456133;28;20041;-79
2023/03/18 00:56:41;;;;;;;41.80;25.85;;;;;;;10.87;100.00;100311.63;10455347;28;20041;-82
2023/03/18 01:01:42;;;;;;;38.03;26.48;;;;;;;10.56;100.00;100262.88;10438755;28;20044;-80
2023/03/18 01:06:43;;;;;;;39.13;27.30;;;;;;;10.76;100.00;100309.34;10456100;28;20477;-79
2023/03/18 01:11:44;;;;;;;42.42;27.23;;;;;;;10.38;100.00;100263.94;10455392;28;20076;-79
2023/03/18 01:16:45;;;;;;;38.42;26.40;;;;;;;10.17;100.00;100239.69;10454513;28;20568;-79
2023/03/18 01:21:46;;;;;;;43.03;26.80;;;;;;;9.67;100.00;100166.44;10455147;28;20107;-79
2023/03/18 01:26:47;;;;;;;41.35;26.00;;;;;;;10.60;100.00;100323.50;10437190;28;20091;-80
2023/03/18 01:31:50;;;;;;;39.67;26.77;;;;;;;10.49;100.00;100318.50;10454776;28;20048;-80
2023/03/18 01:36:50;;;;;;;37.92;26.48;;;;;;;10.30;100.00;100313.56;10454524;28;20041;-80
2023/03/18 01:41:51;;;;;;;38.65;26.25;;;;;;;10.29;100.00;100312.75;10455068;28;20041;-79
2023/03/18 01:46:53;;;;;;;34.97;25.08;;;;;;;10.37;100.00;100326.00;10455172;28;20060;-80
2023/03/18 01:51:59;;;;;;;44.17;28.65;;;;;;;10.34;100.00;100326.31;10453164;28;20049;-79
2023/03/18 01:57:01;;;;;;;37.92;26.35;;;;;;;10.14;100.00;100307.25;10453740;28;20037;-80
2023/03/18 02:02:08;;;;;;;43.17;27.00;;;;;;;10.22;100.00;100325.81;10454022;28;20094;-79
2023/03/18 02:07:23;;;;;;;41.70;26.52;;;;;;;10.23;100.00;100321.31;10453190;28;20064;-79
2023/03/18 02:12:32;;;;;;;42.42;28.92;;;;;;;9.97;100.00;100295.78;10453259;28;20079;-79
2023/03/18 02:17:35;;;;;;;46.28;28.13;;;;;;;9.96;100.00;100299.44;10453781;28;20489;-79
2023/03/18 02:22:42;;;;;;;45.70;29.33;;;;;;;9.59;100.00;100250.31;10436087;28;20037;-79
2023/03/18 02:27:47;;;;;;;48.03;29.92;;;;;;;10.06;100.00;100323.97;10453623;28;20040;-79
2023/03/18 02:32:50;;;;;;;46.83;29.90;;;;;;;9.76;100.00;100277.69;10452931;28;20095;-79
2023/03/18 02:37:51;;;;;;;48.55;31.30;;;;;;;10.17;100.00;100337.91;10453866;28;20051;-78
2023/03/18 02:42:52;;;;;;;50.30;31.35;;;;;;;10.19;100.00;100343.88;10453125;28;20047;-79
2023/03/18 02:47:53;;;;;;;49.88;31.17;;;;;;;10.19;100.00;100347.38;10452720;28;20640;-79
2023/03/18 02:52:54;;;;;;;46.67;29.42;;;;;;;9.79;100.00;100281.84;10452524;28;20080;-79
2023/03/18 02:57:56;;;;;;;47.85;29.88;;;;;;;10.19;100.00;100338.59;10452500;28;20544;-79
2023/03/18 03:02:56;;;;;;;52.92;31.17;;;;;;;10.04;100.00;100318.00;10453022;28;20052;-79
2023/03/18 03:07:57;;;;;;;51.00;31.90;;;;;;;10.24;100.00;100347.72;10459563;28;20489;-79
2023/03/18 03:12:59;;;;;;;54.00;31.92;;;;;;;9.24;100.00;100181.66;10459428;28;20041;-78
2023/03/18 03:17:59;;;;;;;56.90;31.40;;;;;;;10.25;100.00;100343.22;10459874;28;20094;-79
2023/03/18 03:23:08;;;;;;;52.10;31.40;;;;;;;9.98;100.00;100299.25;10441338;28;20566;-78
2023/03/18 03:28:11;;;;;;;48.95;31.95;;;;;;;10.30;100.00;100351.56;10459606;28;20481;-78
2023/03/18 03:33:12;;;;;;;47.53;30.65;;;;;;;10.29;100.00;100347.25;10459550;28;20045;-79
2023/03/18 03:38:13;;;;;;;49.90;30.75;;;;;;;9.79;100.00;100265.94;10459028;28;20493;-78
2023/03/18 03:43:14;;;;;;;45.33;30.80;;;;;;;10.27;100.00;100351.91;10458141;28;20061;-78
2023/03/18 03:48:15;;;;;;;52.88;32.13;;;;;;;9.81;100.00;100282.47;10458079;28;20037;-78
2023/03/18 03:53:16;;;;;;;51.53;32.53;;;;;;;10.28;100.00;100353.53;10440473;28;20045;-78
2023/03/18 03:58:17;;;;;;;48.95;30.73;;;;;;;10.26;100.00;100364.34;10457728;28;20167;-78
2023/03/18 04:03:18;;;;;;;52.80;33.03;;;;;;;9.54;100.00;100236.72;10458537;28;20507;-78
2023/03/18 04:08:19;;;;;;;49.22;30.75;;;;;;;10.26;100.00;100366.13;10457759;28;20137;-78
2023/03/18 04:13:20;;;;;;;47.70;30.38;;;;;;;9.72;100.00;100264.91;10458457;28;20433;-79
2023/03/18 04:18:21;;;;;;;50.65;30.92;;;;;;;9.87;100.00;100288.97;10456491;28;20127;-77
2023/03/18 04:23:21;;;;;;;45.15;30.25;;;;;;;9.96;100.00;100299.44;10456654;28;20043;-77
2023/03/18 04:28:23;;;;;;;45.42;29.80;;;;;;;9.89;100.00;100281.69;10457034;28;20036;-77
2023/03/18 04:33:24;;;;;;;42.67;28.02;;;;;;;10.44;100.00;100366.84;10456603;28;20063;-77
2023/03/18 04:38:27;;;;;;;46.20;29.63;;;;;;;10.35;100.00;100345.75;10457171;28;20463;-77
2023/03/18 04:43:28;;;;;;;43.42;29.33;;;;;;;10.64;100.00;100396.53;10455781;28;20493;-77
2023/03/18 04:48:29;;;;;;;45.67;30.00;;;;;;;10.44;100.00;100356.22;10455690;28;20090;-77
2023/03/18 04:53:30;;;;;;;48.05;30.65;;;;;;;9.98;100.00;100281.50;10455389;28;20067;-77
2023/03/18 04:58:31;;;;;;;51.38;30.42;;;;;;;10.10;100.00;100289.97;10455907;28;20041;-77
2023/03/18 05:03:31;;;;;;;50.30;30.38;;;;;;;10.89;100.00;100404.50;10455690;28;20046;-79
2023/03/18 05:08:33;;;;;;;47.30;30.50;;;;;;;10.93;100.00;100409.28;10472890;28;20052;-77
2023/03/18 05:13:34;;;;;;;43.50;29.25;;;;;;;10.68;100.00;100362.50;10467546;28;20430;-77
2023/03/18 05:18:36;;;;;;;43.20;29.52;;;;;;;10.97;100.00;100415.91;10497032;28;20056;-77
2023/03/18 05:23:37;;;;;;;46.97;28.85;;;;;;;10.94;100.00;100410.13;10490113;28;20048;-77
2023/03/18 05:28:38;;;;;;;47.97;30.05;;;;;;;10.98;100.00;100427.41;10455084;28;20543;-77
2023/03/18 05:33:41;;;;;;;42.58;28.92;;;;;;;10.56;100.00;100351.41;10476657;28;20054;-77
2023/03/18 05:38:42;;;;;;;48.75;28.35;;;;;;;10.90;100.00;100403.50;10466047;28;20070;-77
2023/03/18 05:43:43;;;;;;;38.08;25.48;;;;;;;11.02;100.00;100433.22;10461858;28;20060;-77
2023/03/18 05:48:44;;;;;;;37.08;26.10;;;;;;;10.93;100.00;100409.28;10495261;28;20040;-77
2023/03/18 05:53:45;;;;;;;41.30;26.55;;;;;;;11.07;100.00;100437.03;10495224;28;20041;-77
2023/03/18 05:58:45;;;;;;;43.50;26.92;;;;;;;10.93;100.00;100403.16;10488327;28;20536;-80
2023/03/18 06:03:46;;;;;;;35.22;24.92;;;;;;;11.29;100.00;100439.97;10459416;28;20087;-78
2023/03/18 06:08:47;;;;;;;35.13;23.90;;;;;;;11.41;100.00;100441.25;10435994;28;20052;-76
2023/03/18 06:13:48;;;;;;;36.75;24.83;;;;;;;10.73;100.00;100337.06;10454499;28;20504;-81
2023/03/18 06:18:49;;;;;;;33.13;23.63;;;;;;;11.55;100.00;100453.84;10454220;28;20113;-80
2023/03/18 06:23:50;;;;;;;34.05;23.63;;;;;;;11.63;100.00;100445.00;10447399;28;20045;-80
2023/03/18 06:28:52;;;;;;;34.97;24.70;;;;;;;11.57;100.00;100421.75;10453431;28;20064;-81
2023/03/18 06:33:53;;;;;;;37.92;24.98;;;;;;;11.71;100.00;100412.22;10456689;28;20040;-80
2023/03/18 06:38:54;;;;;;;36.08;25.33;;;;;;;11.36;100.00;100355.81;10473361;28;20047;-79
2023/03/18 06:43:55;;;;;;;38.30;26.17;;;;;;;11.59;100.00;100385.16;10470310;28;20444;-78
2023/03/18 06:48:56;;;;;;;38.25;26.58;;;;;;;11.42;100.00;100344.50;10502898;28;20048;-81
2023/03/18 06:53:57;;;;;;;41.45;27.35;;;;;;;12.06;100.00;100453.50;10455715;28;20560;-81
2023/03/18 06:58:58;;;;;;;39.70;26.25;;;;;;;12.11;100.00;100461.75;10459974;28;20037;-81
2023/03/18 07:03:59;;;;;;;42.63;27.10;;;;;;;11.99;100.00;100432.03;10461128;28;20105;-80
2023/03/18 07:09:00;;;;;;;42.50;28.05;;;;;;;12.26;100.00;100460.00;10441764;28;20481;-81
2023/03/18 07:14:01;;;;;;;38.10;25.67;;;;;;;12.34;100.00;100453.81;10459217;28;20045;-82
2023/03/18 07:19:03;;;;;;;42.67;28.00;;;;;;;12.15;100.00;100414.34;10459840;28;20124;-81
2023/03/18 07:24:04;;;;;;;40.30;27.05;;;;;;;11.76;100.00;100368.09;10459641;28;20051;-80
2023/03/18 07:29:05;;;;;;;40.95;27.90;;;;;;;12.36;100.00;100446.47;10458909;28;20076;-80
2023/03/18 07:34:05;;;;;;;39.88;27.27;;;;;;;12.02;100.00;100377.63;10458801;28;20087;-80
2023/03/18 07:39:09;;;;;;;38.15;26.50;;;;;;;12.29;100.00;100397.56;10458349;28;20048;-81
2023/03/18 07:44:09;;;;;;;39.95;27.10;;;;;;;12.40;100.00;100397.16;10458552;28;20056;-80
2023/03/18 07:49:10;;;;;;;38.17;27.17;;;;;;;12.65;100.00;100436.91;10457988;28;20421;-80
2023/03/18 07:54:11;;;;;;;42.35;27.90;;;;;;;12.42;100.00;100373.84;10458305;28;20040;-80
2023/03/18 07:59:12;;;;;;;41.05;27.48;;;;;;;12.73;100.00;100413.69;10458150;28;20067;-80
2023/03/18 08:04:12;;;;;;;40.58;27.38;;;;;;;12.99;100.00;100423.13;10458248;28;20051;-79
2023/03/18 08:09:13;;;;;;;37.97;26.67;;;;;;;12.48;100.00;100327.81;10462189;28;20048;-75
2023/03/18 08:14:14;;;;;;;38.85;26.02;;;;;;;13.11;100.00;100423.53;10492135;28;20136;-81
2023/03/18 08:19:15;;;;;;;39.60;29.15;;;;;;;13.21;100.00;100430.22;10468129;28;20535;-82
2023/03/18 08:24:16;;;;;;;39.63;26.08;;;;;;;13.14;100.00;100405.31;10479498;28;20049;-85
2023/03/18 08:29:16;;;;;;;39.30;26.25;;;;;;;12.85;100.00;100352.78;10469231;28;20515;-77
2023/03/18 08:36:40;;;;;;;32.92;24.55;;;;;;;13.18;100.00;100419.09;10495543;28;20432;-77
2023/03/18 08:41:41;;;;;;;35.05;24.23;;;;;;;12.63;100.00;100329.69;10469842;28;20386;-77
2023/03/18 08:46:42;;;;;;;33.38;23.48;;;;;;;13.07;100.00;100392.88;10435966;28;20045;-84
2023/03/18 08:51:43;;;;;;;33.55;23.48;;;;;;;13.37;100.00;100409.75;10451020;28;20055;-76
2023/03/18 08:56:44;;;;;;;29.95;21.42;;;;;;;13.60;100.00;100431.81;10467795;28;20040;-76
2023/03/18 09:01:45;;;;;;;31.20;22.75;;;;;;;13.78;100.00;100428.75;10489649;28;20128;-76
2023/03/18 09:06:47;;;;;;;32.13;21.83;;;;;;;13.90;100.00;100435.28;10465065;28;20059;-77
2023/03/18 09:11:48;;;;;;;31.00;21.05;;;;;;;14.04;100.00;100433.59;10447738;28;20045;-76
2023/03/18 09:16:49;;;;;;;28.52;19.05;;;;;;;13.69;100.00;100337.25;10447606;28;20629;-76
2023/03/18 09:21:50;;;;;;;27.13;20.45;;;;;;;14.20;100.00;100413.81;10464947;28;20122;-79
2023/03/18 09:26:50;;;;;;;24.60;18.15;;;;;;;14.06;100.00;100393.31;10484293;28;20041;-79
2023/03/18 09:31:52;;;;;;;26.23;19.02;;;;;;;13.83;100.00;100350.78;10480689;28;20045;-77
2023/03/18 09:36:52;;;;;;;27.50;19.02;;;;;;;14.27;100.00;100392.50;10486985;28;20044;-81
2023/03/18 09:42:14;;;;;;;24.17;16.25;;;;;;;14.53;96.31;100416.84;10468164;28;20484;-79
2023/03/18 09:47:34;;;;;;;23.40;17.15;;;;;;;14.48;98.91;100419.25;10451974;28;20037;-79
2023/03/18 09:52:42;;;;;;;19.75;14.82;;;;;;;14.48;97.56;100419.25;10460585;28;20068;-80
2023/03/18 09:57:46;;;;;;;20.95;15.70;;;;;;;14.57;98.16;100423.47;10459834;28;20133;-79
2023/03/18 10:03:11;;;;;;;20.63;15.40;;;;;;;14.44;97.66;100414.47;10459571;28;20040;-79
2023/03/18 10:08:37;;;;;;;23.55;17.85;;;;;;;14.41;99.08;100396.13;10459704;28;20563;-78
2023/03/18 10:13:47;;;;;;;21.27;16.20;;;;;;;14.57;97.18;100407.44;10458657;28;20044;-78
2023/03/18 10:18:48;;;;;;;20.33;16.00;;;;;;;14.42;97.64;100406.66;10459090;28;20566;-78
2023/03/18 10:24:18;;;;;;;24.17;16.95;;;;;;;14.30;98.08;100395.66;10459687;28;20120;-78
2023/03/18 10:29:37;;;;;;;21.20;15.98;;;;;;;14.38;96.98;100402.69;10458009;28;20040;-77
2023/03/18 10:34:44;;;;;;;26.80;17.23;;;;;;;14.27;97.72;100403.19;10457919;28;20699;-79
2023/03/18 10:39:48;;;;;;;20.65;15.85;;;;;;;13.95;98.42;100362.63;10458064;28;20045;-78
2023/03/18 10:44:51;;;;;;;19.10;13.93;;;;;;;14.16;98.05;100384.00;10458401;28;20052;-78
2023/03/18 10:50:30;;;;;;;20.67;13.63;;;;;;;14.28;98.55;100370.13;10456714;28;20044;-78
2023/03/18 10:55:39;;;;;;;20.23;13.35;;;;;;;14.24;98.38;100382.19;10456120;28;20049;-79
2023/03/18 11:00:39;;;;;;;17.35;13.02;;;;;;;14.39;98.21;100385.66;10457231;28;20056;-79
2023/03/18 11:05:41;;;;;;;18.27;13.05;;;;;;;14.53;97.64;100398.13;10456607;28;20048;-79
2023/03/18 11:10:45;;;;;;;18.48;11.57;;;;;;;14.41;97.43;100375.59;10456508;28;20040;-79
2023/03/18 11:15:51;;;;;;;15.75;11.48;;;;;;;14.26;97.86;100327.56;10456121;28;20056;-80
2023/03/18 11:21:03;;;;;;;17.23;11.80;;;;;;;14.32;96.71;100329.47;10457180;28;20045;-79
2023/03/18 11:26:07;;;;;;;21.42;12.02;;;;;;;14.51;96.39;100370.78;10457075;28;20051;-79
2023/03/18 11:31:16;;;;;;;19.88;12.18;;;;;;;14.53;96.42;100395.44;10457222;28;20566;-80
2023/03/18 11:36:21;;;;;;;17.95;11.45;;;;;;;14.29;96.76;100371.78;10456522;28;20139;-80
2023/03/18 11:41:24;;;;;;;22.77;12.32;;;;;;;14.20;96.65;100362.25;10455815;28;20048;-81
2023/03/18 11:46:42;;;;;;;21.20;11.18;;;;;;;14.32;95.75;100345.50;10455645;28;20487;-79
2023/03/18 11:52:20;;;;;;;23.80;13.45;;;;;;;14.66;96.49;100394.75;10455252;28;20041;-80
2023/03/18 11:57:44;;;;;;;31.20;14.05;;;;;;;14.33;96.42;100381.09;10442420;28;20095;-81
2023/03/18 12:03:10;;;;;;;36.63;15.85;;;;;;;14.10;97.42;100358.03;10427647;28;20406;-80
2023/03/18 12:08:42;;;;;;;27.92;13.63;;;;;;;13.93;98.48;100384.16;10398624;28;20040;-81
2023/03/18 12:13:56;;;;;;;39.42;17.92;;;;;;;13.72;98.74;100368.09;10398141;28;20045;-79
2023/03/18 12:19:27;;;;;;;33.90;14.38;;;;;;;13.80;99.79;100408.06;10390949;28;20573;-80
2023/03/18 12:24:53;;;;;;;58.72;22.52;;;;;;;13.64;100.00;100402.91;10396514;28;20072;-79
2023/03/18 12:30:23;;;;;;;43.88;15.52;;;;;;;13.40;100.00;100374.69;10400749;28;20073;-80
2023/03/18 12:35:40;;;;;;;31.88;14.65;;;;;;;13.56;100.00;100413.72;10399030;28;20064;-79
2023/03/18 12:41:10;;;;;;;39.13;14.85;;;;;;;13.42;100.00;100402.84;10391477;28;20047;-79
2023/03/18 12:46:27;;;;;;;43.58;15.52;;;;;;;13.56;100.00;100414.53;10388360;28;20044;-79
2023/03/18 12:51:33;;;;;;;43.50;14.45;;;;;;;13.41;100.00;100381.69;10387892;28;20041;-79
2023/03/18 12:56:42;;;;;;;45.75;16.02;;;;;;;13.41;100.00;100379.03;10401227;28;20033;-79
2023/03/18 13:01:50;;;;;;;65.25;18.08;;;;;;;13.64;100.00;100406.44;10387801;28;20046;-79
2023/03/18 13:07:17;;;;;;;41.17;13.95;;;;;;;13.64;100.00;100390.41;10395691;28;20075;-79
2023/03/18 13:12:30;;;;;;;52.95;13.68;;;;;;;13.46;100.00;100371.28;10392839;28;20041;-79
2023/03/18 13:17:39;;;;;;;46.45;13.63;;;;;;;13.59;100.00;100398.16;10397940;28;20030;-78
2023/03/18 13:22:44;;;;;;;49.47;14.65;;;;;;;13.61;100.00;100401.47;10407471;28;20038;-78
2023/03/18 13:28:00;;;;;;;62.95;15.95;;;;;;;13.62;100.00;100411.13;10396569;28;20441;-78
2023/03/18 13:33:35;;;;;;;58.75;15.40;;;;;;;13.23;100.00;100334.84;10400199;28;20085;-78
2023/03/18 13:39:05;;;;;;;53.83;20.30;;;;;;;13.53;100.00;100385.53;10397851;28;20045;-80
2023/03/18 13:44:16;;;;;;;77.03;21.25;;;;;;;13.43;100.00;100374.31;10406458;28;20030;-80
2023/03/18 13:49:22;;;;;;;67.70;26.45;;;;;;;13.11;100.00;100323.00;10419407;28;20081;-78
2023/03/18 13:54:31;;;;;;;69.30;26.35;;;;;;;13.16;100.00;100333.09;10413555;28;20050;-79
2023/03/18 13:59:32;;;;;;;66.30;24.73;;;;;;;13.26;100.00;100356.88;10393107;28;20069;-78
2023/03/18 14:04:51;;;;;;;56.22;20.52;;;;;;;13.18;100.00;100357.75;10401934;28;20073;-80
2023/03/18 14:10:04;;;;;;;83.22;40.50;;;;;;;13.47;100.00;100426.31;10395552;28;20037;-78
2023/03/18 14:15:09;;;;;;;67.75;27.85;;;;;;;13.42;100.00;100426.03;10393144;28;20125;-78
2023/03/18 14:20:18;;;;;;;60.35;21.30;;;;;;;13.39;100.00;100426.41;10395600;28;20502;-78
2023/03/18 14:25:37;;;;;;;68.28;20.50;;;;;;;13.14;100.00;100407.16;10398031;28;20081;-79
2023/03/18 14:30:38;;;;;;;70.65;22.48;;;;;;;13.19;100.00;100432.28;10404499;28;20091;-79
2023/03/18 14:35:45;;;;;;;88.82;25.38;;;;;;;13.16;100.00;100437.97;10403232;28;20112;-78
2023/03/18 14:40:50;;;;;;;68.55;27.17;;;;;;;13.08;100.00;100438.03;10405719;28;20034;-78
2023/03/18 14:45:54;;;;;;;69.30;26.10;;;;;;;13.04;100.00;100442.06;10394209;28;21191;-81
2023/03/18 14:50:59;;;;;;;71.35;22.85;;;;;;;12.99;100.00;100439.97;10399009;28;20052;-83
2023/03/18 14:56:01;;;;;;;62.58;21.27;;;;;;;12.95;100.00;100449.34;10420015;28;20458;-87
2023/03/18 15:01:11;;;;;;;62.65;20.42;;;;;;;12.89;100.00;100454.53;10415395;28;20041;-92
2023/03/18 15:06:21;;;;;;;65.35;19.30;;;;;;;12.59;100.00;100400.34;10446206;28;20520;-90
2023/03/18 15:11:23;;;;;;;64.57;22.90;;;;;;;12.93;100.00;100469.19;10453241;28;20041;-90
2023/03/18 15:16:24;;;;;;;75.57;32.10;;;;;;;12.20;100.00;100362.16;10422273;28;20041;-93
2023/03/18 15:21:31;;;;;;;92.72;35.25;;;;;;;12.89;100.00;100475.88;10420828;28;20559;-92
2023/03/18 15:26:40;;;;;;;89.60;39.15;;;;;;;12.83;100.00;100479.25;10421886;28;20144;-92
2023/03/18 15:31:43;;;;;;;88.25;38.13;;;;;;;12.26;100.00;100387.28;10419074;28;20069;-90
2023/03/18 15:36:51;;;;;;;94.83;41.93;;;;;;;12.64;100.00;100457.41;10418353;28;20130;-91
2023/03/18 15:41:53;;;;;;;90.88;33.40;;;;;;;12.79;100.00;100492.94;10419347;28;20493;-93
2023/03/18 15:47:02;;;;;;;83.20;33.15;;;;;;;12.81;100.00;100500.78;10419160;28;20048;-93
2023/03/18 15:52:07;;;;;;;89.65;35.95;;;;;;;12.79;100.00;100500.94;10417502;28;20060;-93
2023/03/18 15:57:21;;;;;;;107.22;37.20;;;;;;;12.35;100.00;100436.81;10417011;28;20037;-91
2023/03/18 16:02:22;;;;;;;91.55;41.28;;;;;;;12.75;100.00;100502.31;10418640;28;20046;-93
2023/03/18 16:07:27;;;;;;;82.35;27.05;;;;;;;12.42;100.00;100456.44;10418904;28;20489;-93
2023/03/18 16:12:30;;;;;;;68.85;24.67;;;;;;;12.12;100.00;100410.19;10421292;28;20512;-92
2023/03/18 16:17:32;;;;;;;72.35;25.40;;;;;;;12.61;100.00;100492.44;10418952;28;20049;-82
2023/03/18 16:22:33;;;;;;;74.50;26.13;;;;;;;12.12;100.00;100415.50;10416734;28;20042;-91
2023/03/18 16:27:38;;;;;;;77.35;24.83;;;;;;;12.39;100.00;100462.13;10415427;28;20041;-91
2023/03/18 16:32:39;;;;;;;64.20;18.50;;;;;;;12.12;100.00;100430.66;10416740;28;20060;-91
2023/03/18 16:37:41;;;;;;;72.35;17.85;;;;;;;12.59;100.00;100520.25;10415025;28;20053;-89
2023/03/18 16:42:43;;;;;;;63.15;16.20;;;;;;;12.60;100.00;100522.75;10438326;28;20049;-88
2023/03/18 16:47:46;;;;;;;65.47;15.43;;;;;;;12.18;100.00;100454.75;10456965;28;20037;-92
2023/03/18 16:52:48;;;;;;;71.60;16.75;;;;;;;11.73;100.00;100384.44;10455283;28;20505;-91
2023/03/18 16:57:54;;;;;;;75.93;17.20;;;;;;;12.55;100.00;100519.78;10449622;28;20088;-93
2023/03/18 17:02:55;;;;;;;63.35;14.88;;;;;;;12.44;100.00;100506.84;10434972;28;20037;-90
2023/03/18 17:07:56;;;;;;;64.43;13.80;;;;;;;12.39;100.00;100506.56;10460028;28;20045;-90
2023/03/18 17:13:01;;;;;;;64.05;14.98;;;;;;;12.08;100.00;100462.13;10467412;28;20052;-92
2023/03/18 17:18:03;;;;;;;59.95;15.13;;;;;;;12.44;100.00;100528.16;10427019;28;20044;-85
2023/03/18 17:23:04;;;;;;;69.65;14.35;;;;;;;12.45;100.00;100525.34;10387464;28;20525;-87
2023/03/18 17:28:06;;;;;;;53.67;14.10;;;;;;;12.36;100.00;100522.91;10381123;28;20081;-86
2023/03/18 17:33:29;;;;;;;63.50;15.00;;;;;;;12.40;100.00;100542.84;10380794;28;20069;-87
2023/03/18 17:38:31;;;;;;;64.78;17.38;;;;;;;12.21;100.00;100523.66;10380727;28;20045;-85
2023/03/18 17:43:35;;;;;;;64.20;20.58;;;;;;;12.13;100.00;100513.03;10402735;28;20041;-87
2023/03/18 17:48:37;;;;;;;;;;;;;;;12.37;100.00;100535.22;10396842;28;20037;-86
2023/03/18 17:53:41;;;;;;;76.18;20.35;;;;;;;12.10;100.00;100529.34;10411567;28;19917;-83
2023/03/18 17:58:44;;;;;;;72.50;18.58;;;;;;;12.09;100.00;100533.03;10419480;28;20064;-87
2023/03/18 18:03:46;;;;;;;72.95;18.55;;;;;;;11.57;100.00;100466.97;10422777;28;20515;-90
2023/03/18 18:08:48;;;;;;;68.95;18.80;;;;;;;11.94;100.00;100518.78;10419823;28;20041;-90
2023/03/18 18:13:50;;;;;;;61.70;15.23;;;;;;;12.01;100.00;100536.53;10442543;28;20051;-89
2023/03/18 18:18:51;;;;;;;64.18;16.65;;;;;;;11.49;100.00;100451.88;10463069;28;20041;-92
2023/03/18 18:23:52;;;;;;;57.03;12.90;;;;;;;11.63;100.00;100474.25;10459914;28;20040;-84
2023/03/18 18:28:53;;;;;;;67.00;14.75;;;;;;;11.91;100.00;100525.28;10462288;28;20044;-91
2023/03/18 18:33:54;;;;;;;63.30;17.85;;;;;;;11.62;100.00;100492.06;10462248;28;20500;-92
2023/03/18 18:38:55;;;;;;;62.63;14.57;;;;;;;10.94;100.00;100381.69;10461384;28;20102;-86
2023/03/18 18:43:56;;;;;;;68.20;15.40;;;;;;;11.38;100.00;100452.25;10443669;28;20107;-84
2023/03/18 18:48:57;;;;;;;58.10;14.77;;;;;;;10.69;100.00;100342.91;10460291;28;20048;-87
2023/03/18 18:53:58;;;;;;;79.93;20.00;;;;;;;11.50;100.00;100496.09;10457620;28;20049;-88
2023/03/18 18:59:00;;;;;;;68.75;14.70;;;;;;;11.71;100.00;100535.44;10457022;28;20454;-87
2023/03/18 19:04:02;;;;;;;99.35;26.75;;;;;;;11.60;100.00;100519.84;10458052;28;20083;-87
2023/03/18 19:09:17;;;;;;;103.75;19.30;;;;;;;10.80;100.00;100394.84;10456165;28;20563;-85
2023/03/18 19:14:18;;;;;;;80.13;15.40;;;;;;;11.58;100.00;100524.53;10456464;28;20083;-82
2023/03/18 19:19:23;;;;;;;100.55;17.15;;;;;;;11.50;100.00;100529.84;10445334;28;20496;-88
2023/03/18 19:24:29;;;;;;;72.20;15.23;;;;;;;11.43;100.00;100527.88;10456940;28;20123;-88
2023/03/18 19:29:31;;;;;;;95.90;16.10;;;;;;;10.96;100.00;100454.13;10449579;28;20037;-89
2023/03/18 19:34:34;;;;;;;80.03;15.88;;;;;;;11.34;100.00;100522.75;10452863;28;20102;-88
2023/03/18 19:39:35;;;;;;;114.68;17.92;;;;;;;11.29;100.00;100509.09;10457920;28;20503;-85
2023/03/18 19:44:36;;;;;;;111.13;19.40;;;;;;;10.40;100.00;100370.81;10431341;28;20037;-87
2023/03/18 19:49:38;;;;;;;101.43;17.00;;;;;;;11.20;100.00;100508.28;10428585;28;20073;-87
2023/03/18 19:54:38;;;;;;;103.63;17.20;;;;;;;10.74;100.00;100436.22;10413089;28;20042;-87
2023/03/18 19:59:40;;;;;;;121.88;17.85;;;;;;;10.84;100.00;100470.59;10414862;28;20042;-89
2023/03/18 20:04:41;;;;;;;126.32;17.60;;;;;;;10.47;100.00;100418.81;10438058;28;20136;-88
2023/03/18 20:09:43;;;;;;;106.68;17.05;;;;;;;10.29;100.00;100384.44;10448357;28;20132;-89
2023/03/18 20:14:43;;;;;;;138.13;19.83;;;;;;;10.67;100.00;100453.81;10447549;28;20045;-90
2023/03/18 20:19:45;;;;;;;124.68;19.30;;;;;;;10.31;100.00;100413.47;10456785;28;20547;-90
2023/03/18 20:24:46;;;;;;;126.45;18.33;;;;;;;10.52;100.00;100454.47;10455483;28;20037;-90
2023/03/18 20:29:47;;;;;;;130.45;19.17;;;;;;;10.48;100.00;100454.97;10453820;28;20131;-88
2023/03/18 20:34:49;;;;;;;157.18;19.85;;;;;;;10.48;100.00;100469.09;10439414;28;20063;-90
2023/03/18 20:39:51;;;;;;;140.27;18.98;;;;;;;10.32;100.00;100474.38;10455548;28;20048;-89
2023/03/18 20:44:51;;;;;;;119.65;19.55;;;;;;;10.32;100.00;100478.84;10455329;28;20386;-85
2023/03/18 20:49:53;;;;;;;123.63;18.95;;;;;;;9.70;100.00;100378.31;10454584;28;20040;-88
2023/03/18 20:54:57;;;;;;;125.35;20.55;;;;;;;10.29;100.00;100485.31;10454140;28;20041;-88
2023/03/18 20:59:58;;;;;;;;;;;;;;;10.45;100.00;100485.34;10454282;28;20075;-87
2023/03/18 21:05:00;;;;;;;113.05;19.95;;;;;;;10.15;100.00;100477.97;10454396;28;19956;-87
2023/03/18 21:10:01;;;;;;;127.93;21.10;;;;;;;10.04;100.00;100466.63;10454235;28;20129;-88
2023/03/18 21:15:02;;;;;;;134.40;19.73;;;;;;;10.21;100.00;100495.88;10453710;28;20051;-87
2023/03/18 21:20:04;;;;;;;108.28;16.98;;;;;;;9.64;100.00;100414.28;10454148;28;20041;-87
2023/03/18 21:25:05;;;;;;;111.28;18.60;;;;;;;10.00;100.00;100485.69;10453508;28;20098;-87
2023/03/18 21:30:08;;;;;;;124.45;17.80;;;;;;;9.85;100.00;100458.13;10453712;28;20037;-84
2023/03/18 21:35:28;;;;;;;107.15;18.60;;;;;;;9.83;100.00;100463.56;10452046;28;20065;-87
2023/03/18 21:40:29;;;;;;;109.10;19.70;;;;;;;9.66;100.00;100459.19;10454692;28;20058;-88
2023/03/18 21:45:30;;;;;;;105.45;18.35;;;;;;;9.73;100.00;100473.50;10461541;28;20036;-88
2023/03/18 21:50:31;;;;;;;164.65;23.25;;;;;;;9.44;100.00;100410.22;10459583;28;20102;-86
2023/03/18 21:55:31;;;;;;;138.65;21.00;;;;;;;9.98;100.00;100490.34;10448959;28;20485;-85
2023/03/18 22:00:32;;;;;;;168.02;23.88;;;;;;;9.49;100.00;100414.03;10460239;28;20110;-86
2023/03/18 22:05:33;;;;;;;169.32;23.15;;;;;;;9.77;100.00;100458.91;10459865;28;20041;-86
2023/03/18 22:10:34;;;;;;;154.95;22.40;;;;;;;9.89;100.00;100473.53;10459173;28;20044;-85
2023/03/18 22:15:37;;;;;;;169.73;22.10;;;;;;;9.84;100.00;100465.22;10458823;28;20056;-85
2023/03/18 22:20:38;;;;;;;153.57;20.25;;;;;;;9.62;100.00;100428.69;10458535;28;20040;-83
2023/03/18 22:25:40;;;;;;;125.57;18.52;;;;;;;9.49;100.00;100427.31;10459439;28;20037;-85
2023/03/18 22:30:43;;;;;;;171.30;23.13;;;;;;;9.66;100.00;100451.22;10458781;28;20068;-84
2023/03/18 22:35:44;;;;;;;166.15;21.63;;;;;;;9.48;100.00;100436.25;10457768;28;20103;-85